Limaburg, Kentucky
Current Conditions -  °F | °C
As of 2:52 AM on Tuesday 21 Oct 2014 (Local Time) from KCVG Reporting Station
Scattered Clouds Scattered Clouds  
Wind Chill: 52°   Ceiling: Unl
Heat Index: 52°   Visibility: 10mi
Dew Point: 47°   Wind: 7mph
Humidity: 83%   Direction: 300°WNW
Pressure: 29.92"   Gusts: NA
Location:  39.0238°N, 84.7647°W
Report Text: KCVG 210652Z 30006KT 10SM SCT050 11/08 A2992 RMK AO2 SLP129 T01110083
Loading
Personal Weather Stations






























Interactive Weather Map
Tropical Storm Tracking
New forecast layout! Learn more

10-Day Weather Forecast

Advertisements
Track Severe Weather on mobile